Time;durP1;ratioP1;P1;durP2;ratioP2;P2;SDS_P1;SDS_P2;PMS_P1;PMS_P2;Temp;Humidity;BMP_temperature;BMP_pressure;BME280_temperature;BME280_humidity;BME280_pressure;Samples;Min_cycle;Max_cycle;Signal;HPM_P1;HPM_P2
2022/05/21 00:02:03;;;;;;;6.05;3.92;;;21.00;89.20;;;;;;5036606;28;20029;-80
2022/05/21 00:04:29;;;;;;;9.90;5.30;;;21.10;89.10;;;;;;5034862;28;20017;-79
2022/05/21 00:06:57;;;;;;;9.55;5.90;;;20.90;94.20;;;;;;5035890;28;20337;-80
2022/05/21 00:09:24;;;;;;;11.95;5.38;;;20.60;95.40;;;;;;5036009;28;20052;-79
2022/05/21 00:11:49;;;;;;;10.60;6.22;;;20.40;95.90;;;;;;5035201;28;20053;-78
2022/05/21 00:14:15;;;;;;;11.95;5.82;;;20.30;96.60;;;;;;5035461;28;20068;-79
2022/05/21 00:16:41;;;;;;;9.75;5.10;;;20.20;97.00;;;;;;5036296;28;20113;-79
2022/05/21 00:19:07;;;;;;;9.48;5.65;;;20.10;97.50;;;;;;5036476;28;20063;-80
2022/05/21 00:21:32;;;;;;;12.50;5.45;;;20.00;98.00;;;;;;5037114;28;20470;-80
2022/05/21 00:23:58;;;;;;;12.63;5.15;;;20.00;98.30;;;;;;5036037;28;20021;-80
2022/05/21 00:26:25;;;;;;;11.50;6.15;;;19.90;98.70;;;;;;5035374;28;20037;-80
2022/05/21 00:28:51;;;;;;;7.07;4.65;;;19.90;98.40;;;;;;5035496;28;20053;-80
2022/05/21 00:31:18;;;;;;;8.48;4.72;;;19.80;98.70;;;;;;5035343;28;20133;-80
2022/05/21 00:33:46;;;;;;;6.20;4.80;;;19.80;98.80;;;;;;5035748;28;20022;-80
2022/05/21 00:36:13;;;;;;;12.65;5.30;;;19.80;98.90;;;;;;5039094;28;20037;-80
2022/05/21 00:38:40;;;;;;;7.60;4.47;;;19.90;98.30;;;;;;5034373;28;20026;-79
2022/05/21 00:41:07;;;;;;;11.70;4.88;;;19.80;98.50;;;;;;5035369;28;20036;-79
2022/05/21 00:43:36;;;;;;;9.80;4.78;;;19.80;98.40;;;;;;5035302;28;20052;-81
2022/05/21 00:46:04;;;;;;;7.25;4.32;;;19.70;98.50;;;;;;5017009;28;20045;-80
2022/05/21 00:48:30;;;;;;;9.52;4.63;;;19.80;98.50;;;;;;5035888;28;20025;-79
2022/05/21 00:50:56;;;;;;;6.35;4.45;;;19.80;98.10;;;;;;5035843;28;20382;-79
2022/05/21 00:53:22;;;;;;;8.43;4.18;;;19.80;97.70;;;;;;5015901;28;20059;-78
2022/05/21 00:55:50;;;;;;;6.15;4.05;;;19.80;97.40;;;;;;5034878;28;20030;-79
2022/05/21 01:01:07;;;;;;;10.20;4.88;;;19.80;96.70;;;;;;5034823;28;20108;-79
2022/05/21 01:03:33;;;;;;;5.75;4.35;;;19.80;96.60;;;;;;5034592;28;20033;-79
2022/05/21 01:06:05;;;;;;;7.25;4.07;;;19.80;96.60;;;;;;5019579;28;20668;-79
2022/05/21 01:08:31;;;;;;;7.43;4.05;;;19.80;96.20;;;;;;5035227;28;20095;-78
2022/05/21 01:11:02;;;;;;;11.23;4.35;;;19.80;95.70;;;;;;5035744;28;20022;-79
2022/05/21 01:13:33;;;;;;;5.97;3.88;;;19.80;95.50;;;;;;5035167;28;20025;-80
2022/05/21 01:15:59;;;;;;;8.32;3.97;;;19.80;95.30;;;;;;5037123;28;20067;-80
2022/05/21 01:18:25;;;;;;;8.02;3.92;;;19.80;95.50;;;;;;5036377;28;20079;-79
2022/05/21 01:20:58;;;;;;;6.40;4.13;;;19.80;95.20;;;;;;5036979;28;20466;-80
2022/05/21 01:23:24;;;;;;;8.30;4.00;;;19.70;95.40;;;;;;5037499;28;20075;-80
2022/05/21 01:25:52;;;;;;;3.92;3.55;;;19.70;95.70;;;;;;5035283;28;20032;-79
2022/05/21 01:28:21;;;;;;;5.90;3.78;;;19.60;95.90;;;;;;5034674;28;20049;-80
2022/05/21 01:30:55;;;;;;;5.25;3.70;;;19.60;95.70;;;;;;5016977;28;20369;-80
2022/05/21 01:33:25;;;;;;;4.95;3.60;;;19.50;96.30;;;;;;5035322;28;20025;-79
2022/05/21 01:35:51;;;;;;;6.03;3.80;;;19.40;97.10;;;;;;5017299;28;20029;-80
2022/05/21 01:38:20;;;;;;;10.32;5.20;;;19.20;97.20;;;;;;5035789;28;20055;-80
2022/05/21 01:40:48;;;;;;;6.97;4.00;;;19.00;98.00;;;;;;5017101;28;20052;-80
2022/05/21 01:45:58;;;;;;;5.88;4.05;;;18.70;99.60;;;;;;5034367;28;20043;-81
2022/05/21 01:48:27;;;;;;;6.28;3.90;;;18.60;99.90;;;;;;5034485;28;20125;-80
2022/05/21 01:50:54;;;;;;;9.52;5.47;;;18.50;99.90;;;;;;5033955;28;20029;-79
2022/05/21 01:53:22;;;;;;;6.00;3.85;;;18.40;99.90;;;;;;5034225;28;20457;-80
2022/05/21 01:55:48;;;;;;;4.60;3.70;;;18.30;99.90;;;;;;5035637;28;20040;-79
2022/05/21 01:58:15;;;;;;;6.72;3.70;;;18.30;99.90;;;;;;5034845;28;20033;-80
2022/05/21 02:00:42;;;;;;;5.88;3.28;;;18.30;99.90;;;;;;5035461;28;20100;-78
2022/05/21 02:03:09;;;;;;;5.65;3.15;;;18.30;99.90;;;;;;5020753;28;20017;-79
2022/05/21 02:05:36;;;;;;;3.22;2.83;;;18.30;99.90;;;;;;5046627;28;20088;-79
2022/05/21 02:08:02;;;;;;;4.70;3.17;;;18.30;99.90;;;;;;5035151;28;20104;-79
2022/05/21 02:10:28;;;;;;;8.20;3.78;;;18.30;99.90;;;;;;5034051;28;20100;-79
2022/05/21 02:12:53;;;;;;;4.82;2.97;;;18.40;99.70;;;;;;5033423;28;20496;-80
2022/05/21 02:15:20;;;;;;;4.25;2.80;;;18.40;99.70;;;;;;5033708;28;20026;-81
2022/05/21 02:17:45;;;;;;;7.07;3.47;;;18.40;99.70;;;;;;5033634;28;20429;-79
2022/05/21 02:20:12;;;;;;;5.88;3.63;;;18.40;99.40;;;;;;5036939;28;20097;-79
2022/05/21 02:22:38;;;;;;;3.25;2.65;;;18.40;98.90;;;;;;5036522;28;20478;-81
2022/05/21 02:25:05;;;;;;;4.55;3.53;;;18.40;99.10;;;;;;5034180;28;20432;-80
2022/05/21 02:27:31;;;;;;;7.38;3.67;;;18.40;99.30;;;;;;5033648;28;20049;-79
2022/05/21 02:29:56;;;;;;;4.57;3.80;;;18.40;99.60;;;;;;5032467;28;20079;-81
2022/05/21 02:32:22;;;;;;;7.03;3.60;;;18.40;99.90;;;;;;5032885;28;20038;-79
2022/05/21 02:34:48;;;;;;;4.05;3.67;;;18.40;99.90;;;;;;5033126;28;20444;-79
2022/05/21 02:39:58;;;;;;;4.45;3.75;;;18.40;99.90;;;;;;5033779;28;20059;-80
2022/05/21 02:45:09;;;;;;;4.75;4.22;;;18.40;99.90;;;;;;5034875;28;20474;-80
2022/05/21 02:47:35;;;;;;;5.90;4.57;;;18.40;99.90;;;;;;5034174;28;20032;-80
2022/05/21 02:50:01;;;;;;;8.20;4.32;;;18.40;99.90;;;;;;5034705;28;20026;-80
2022/05/21 02:52:26;;;;;;;4.45;3.70;;;18.30;99.90;;;;;;5037239;28;20033;-79
2022/05/21 02:54:52;;;;;;;7.85;4.40;;;18.30;99.90;;;;;;5019053;28;20029;-80
2022/05/21 02:57:18;;;;;;;7.20;4.05;;;18.30;99.90;;;;;;5036841;28;20041;-79
2022/05/21 02:59:44;;;;;;;12.57;4.95;;;18.30;99.90;;;;;;5035730;28;20428;-79
2022/05/21 03:02:09;;;;;;;7.05;4.13;;;18.30;99.90;;;;;;5036111;28;20453;-80
2022/05/21 03:04:35;;;;;;;6.07;4.40;;;18.30;99.90;;;;;;5051694;28;20029;-79
2022/05/21 03:07:11;;;;;;;7.10;4.28;;;18.20;99.90;;;;;;5038262;28;20021;-79
2022/05/21 03:12:22;;;;;;;8.07;4.78;;;18.10;99.90;;;;;;5031092;28;20164;-78
2022/05/21 03:14:48;;;;;;;8.00;4.03;;;18.00;99.90;;;;;;5038105;28;20076;-79
2022/05/21 03:17:13;;;;;;;6.97;4.57;;;18.00;99.90;;;;;;5038660;28;20033;-78
2022/05/21 03:19:39;;;;;;;5.47;3.50;;;18.00;99.90;;;;;;5038872;28;20036;-79
2022/05/21 03:22:05;;;;;;;6.70;3.97;;;18.00;99.90;;;;;;5041687;28;20113;-79
2022/05/21 03:24:31;;;;;;;5.03;4.05;;;18.00;99.90;;;;;;5022835;28;20029;-78
2022/05/21 03:26:58;;;;;;;7.20;4.25;;;17.90;99.90;;;;;;5043732;28;20027;-83
2022/05/21 03:29:24;;;;;;;8.18;4.78;;;17.90;99.90;;;;;;5029102;28;20056;-83
2022/05/21 03:31:50;;;;;;;8.00;4.85;;;17.90;99.90;;;;;;5045335;28;20056;-83
2022/05/21 03:34:17;;;;;;;4.45;3.63;;;17.90;99.90;;;;;;5043977;28;20025;-82
2022/05/21 03:36:43;;;;;;;7.15;3.47;;;17.80;99.90;;;;;;5041339;28;20036;-82
2022/05/21 03:39:09;;;;;;;6.13;4.05;;;17.90;99.90;;;;;;5043700;28;20417;-83
2022/05/21 03:41:36;;;;;;;4.72;3.97;;;17.90;99.90;;;;;;5044666;28;20069;-80
2022/05/21 03:44:03;;;;;;;4.97;3.78;;;17.90;99.90;;;;;;5038860;28;20040;-80
2022/05/21 03:46:28;;;;;;;10.20;4.28;;;17.90;99.90;;;;;;5041524;28;20104;-80
2022/05/21 03:48:54;;;;;;;7.47;3.88;;;17.90;99.90;;;;;;5040897;28;20053;-80
2022/05/21 03:51:20;;;;;;;7.40;4.03;;;17.90;99.90;;;;;;5041912;28;20085;-83
2022/05/21 03:53:46;;;;;;;5.68;4.10;;;17.90;99.90;;;;;;5039760;28;20025;-83
2022/05/21 03:56:11;;;;;;;6.70;3.92;;;17.90;99.90;;;;;;5039232;28;20033;-82
2022/05/21 03:58:37;;;;;;;6.18;3.28;;;17.90;99.90;;;;;;5041601;28;20097;-82
2022/05/21 04:01:03;;;;;;;10.30;4.22;;;17.90;99.90;;;;;;5042261;28;20064;-83
2022/05/21 04:03:30;;;;;;;6.07;4.07;;;17.90;99.90;;;;;;5057149;28;20033;-86
2022/05/21 04:05:57;;;;;;;7.75;3.60;;;17.90;99.90;;;;;;5056353;28;20029;-84
2022/05/21 04:08:24;;;;;;;8.10;4.10;;;17.90;99.90;;;;;;5049590;28;20070;-83
2022/05/21 04:10:51;;;;;;;7.00;4.15;;;17.80;99.90;;;;;;5044120;28;20032;-83
2022/05/21 04:13:17;;;;;;;3.58;3.28;;;17.80;99.90;;;;;;5040061;28;20033;-83
2022/05/21 04:15:44;;;;;;;5.60;3.85;;;17.80;99.90;;;;;;5040884;28;20608;-82
2022/05/21 04:18:09;;;;;;;4.70;3.22;;;17.80;99.90;;;;;;5040841;28;20040;-84
2022/05/21 04:20:36;;;;;;;6.03;3.55;;;17.80;99.90;;;;;;5037978;28;20022;-82
2022/05/21 04:23:01;;;;;;;5.13;3.42;;;17.80;99.90;;;;;;5046695;28;20159;-84
2022/05/21 04:25:27;;;;;;;7.38;4.15;;;17.80;99.90;;;;;;5046414;28;20029;-82
2022/05/21 04:27:53;;;;;;;7.50;3.75;;;17.80;99.90;;;;;;5046545;28;20021;-82
2022/05/21 04:30:26;;;;;;;5.75;3.95;;;17.80;99.90;;;;;;5049174;28;20033;-82
2022/05/21 04:32:53;;;;;;;4.85;3.22;;;17.80;99.90;;;;;;5046443;28;20026;-83
2022/05/21 04:35:19;;;;;;;5.00;3.58;;;17.80;99.90;;;;;;5047244;28;20067;-82
2022/05/21 04:37:46;;;;;;;4.18;3.55;;;17.90;99.90;;;;;;5028735;28;20029;-82
2022/05/21 04:40:16;;;;;;;4.13;2.80;;;17.90;99.90;;;;;;5045908;28;20040;-82
2022/05/21 04:42:42;;;;;;;4.20;3.65;;;18.00;99.90;;;;;;5046659;28;20493;-83
2022/05/21 04:45:09;;;;;;;4.07;3.40;;;18.00;99.50;;;;;;5027442;28;20117;-83
2022/05/21 04:47:35;;;;;;;4.13;3.58;;;17.90;99.40;;;;;;5023501;28;20025;-82
2022/05/21 04:50:02;;;;;;;3.70;3.35;;;17.90;99.40;;;;;;5062031;28;20014;-84
2022/05/21 04:52:27;;;;;;;5.10;3.70;;;17.90;99.00;;;;;;5044511;28;20094;-83
2022/05/21 04:54:53;;;;;;;6.95;3.50;;;17.90;99.30;;;;;;5055532;28;20021;-83
2022/05/21 04:57:19;;;;;;;5.80;3.92;;;18.00;99.30;;;;;;5053010;28;20025;-86
2022/05/21 04:59:46;;;;;;;4.30;2.58;;;18.10;98.60;;;;;;5052849;28;20026;-84
2022/05/21 05:02:12;;;;;;;6.10;2.90;;;18.10;98.50;;;;;;5041970;28;20098;-84
2022/05/21 05:04:38;;;;;;;3.03;2.72;;;18.30;98.00;;;;;;5044896;28;20021;-83
2022/05/21 05:07:08;;;;;;;3.10;2.72;;;18.40;97.20;;;;;;5041178;28;20104;-81
2022/05/21 05:09:44;;;;;;;5.43;2.72;;;18.50;96.70;;;;;;5042871;28;20049;-84
2022/05/21 05:12:10;;;;;;;3.80;2.70;;;19.20;95.00;;;;;;5038817;28;20036;-83
2022/05/21 05:14:37;;;;;;;2.58;2.35;;;19.20;93.50;;;;;;5035939;28;20029;-83
2022/05/21 05:17:04;;;;;;;3.70;3.13;;;18.80;93.70;;;;;;5035684;28;20051;-83
2022/05/21 05:19:31;;;;;;;5.43;2.90;;;18.50;93.90;;;;;;5035580;28;20034;-84
2022/05/21 05:21:57;;;;;;;3.22;2.55;;;18.30;94.70;;;;;;5034783;28;20073;-83
2022/05/21 05:24:24;;;;;;;3.17;2.45;;;18.90;95.40;;;;;;5037201;28;20071;-84
2022/05/21 05:26:49;;;;;;;3.30;2.45;;;20.00;91.70;;;;;;5019174;28;20021;-81
2022/05/21 05:29:15;;;;;;;4.53;2.42;;;20.00;90.40;;;;;;5019762;28;20028;-83
2022/05/21 05:31:41;;;;;;;3.80;2.45;;;20.50;89.00;;;;;;5037304;28;20025;-84
2022/05/21 05:34:06;;;;;;;2.03;1.83;;;21.60;85.00;;;;;;5018077;28;20029;-83
2022/05/21 05:36:32;;;;;;;2.25;1.75;;;24.10;79.90;;;;;;5035817;28;20043;-83
2022/05/21 05:38:59;;;;;;;3.55;2.05;;;26.70;67.10;;;;;;5018224;28;20410;-83
2022/05/21 05:41:26;;;;;;;2.33;1.98;;;27.20;58.20;;;;;;5035461;28;20022;-83
2022/05/21 05:43:56;;;;;;;2.97;2.58;;;27.50;58.00;;;;;;5035085;28;20053;-83
2022/05/21 05:46:23;;;;;;;2.25;1.80;;;29.20;53.50;;;;;;5035615;28;20021;-82
2022/05/21 05:48:49;;;;;;;1.95;1.75;;;30.40;51.20;;;;;;5036233;28;20025;-82
2022/05/21 05:51:16;;;;;;;4.75;1.45;;;31.40;48.20;;;;;;5039145;28;20498;-82
2022/05/21 05:53:43;;;;;;;2.22;2.03;;;31.90;47.40;;;;;;5037059;28;20025;-82
2022/05/21 05:56:09;;;;;;;3.17;2.00;;;31.70;45.90;;;;;;5036522;28;20033;-82
2022/05/21 06:01:20;;;;;;;2.58;2.05;;;31.00;46.20;;;;;;5036199;28;20071;-83
2022/05/21 06:03:48;;;;;;;2.47;1.80;;;30.90;45.10;;;;;;5037218;28;20040;-83
2022/05/21 06:06:15;;;;;;;3.42;1.58;;;30.60;45.90;;;;;;5054286;28;20016;-82
2022/05/21 06:08:41;;;;;;;3.47;1.27;;;30.20;45.80;;;;;;5042582;28;20347;-83
2022/05/21 06:11:07;;;;;;;1.60;1.50;;;30.30;46.80;;;;;;5035965;28;20134;-84
2022/05/21 06:13:33;;;;;;;5.45;1.60;;;30.80;45.30;;;;;;5037380;28;20434;-82
2022/05/21 06:16:00;;;;;;;4.22;1.40;;;31.00;44.00;;;;;;5037119;28;20025;-83
2022/05/21 06:18:26;;;;;;;4.03;2.08;;;30.50;43.90;;;;;;5044183;28;20027;-83
2022/05/21 06:20:51;;;;;;;2.15;1.60;;;29.30;45.80;;;;;;5054972;28;20028;-82
2022/05/21 06:23:20;;;;;;;2.17;1.35;;;27.50;48.50;;;;;;5035247;28;20030;-82
2022/05/21 06:25:47;;;;;;;2.20;1.30;;;25.70;50.00;;;;;;5037037;28;20025;-83
2022/05/21 06:28:13;;;;;;;1.77;1.23;;;24.00;54.00;;;;;;5043568;28;20036;-83
2022/05/21 06:30:40;;;;;;;2.08;1.30;;;24.30;55.20;;;;;;5044427;28;20021;-83
2022/05/21 06:33:19;;;;;;;1.17;1.02;;;27.00;51.10;;;;;;5038979;28;20159;-83
2022/05/21 06:35:47;;;;;;;3.35;1.65;;;29.50;46.50;;;;;;5021205;28;20030;-83
2022/05/21 06:38:13;;;;;;;1.60;1.50;;;30.90;43.60;;;;;;5043390;28;20034;-82
2022/05/21 06:40:39;;;;;;;1.88;1.30;;;31.10;43.40;;;;;;5041271;28;20025;-84
2022/05/21 06:43:05;;;;;;;1.40;1.20;;;31.00;43.30;;;;;;5052358;23;20080;-77
2022/05/21 06:45:32;;;;;;;1.30;1.20;;;31.10;43.40;;;;;;5017323;28;20666;-77
2022/05/21 06:48:06;;;;;;;1.85;1.50;;;31.60;43.10;;;;;;5019928;28;20502;-78
2022/05/21 06:50:32;;;;;;;2.58;1.42;;;31.70;41.90;;;;;;5018781;28;20026;-77
2022/05/21 06:52:58;;;;;;;1.40;1.30;;;31.30;42.10;;;;;;5015964;28;20025;-78
2022/05/21 06:55:24;;;;;;;1.58;1.05;;;30.40;42.30;;;;;;5000696;28;20455;-77
2022/05/21 06:57:51;;;;;;;1.75;1.33;;;29.80;43.40;;;;;;5008904;28;20075;-77
2022/05/21 07:00:21;;;;;;;1.65;1.30;;;29.70;44.50;;;;;;5019644;28;20044;-77
2022/05/21 07:02:48;;;;;;;1.63;1.50;;;30.90;43.10;;;;;;5020191;28;20105;-78
2022/05/21 07:08:00;;;;;;;1.27;1.17;;;28.70;44.60;;;;;;5022009;28;20103;-78
2022/05/21 07:10:29;;;;;;;3.15;1.40;;;25.80;49.10;;;;;;5018271;28;20553;-78
2022/05/21 07:12:55;;;;;;;2.97;1.98;;;24.00;52.70;;;;;;5019350;28;20026;-77
2022/05/21 07:15:21;;;;;;;4.20;1.70;;;22.90;55.70;;;;;;5021893;28;20033;-78
2022/05/21 07:17:48;;;;;;;1.95;1.77;;;22.00;57.40;;;;;;5022947;28;20018;-77
2022/05/21 07:20:17;;;;;;;4.30;2.15;;;21.10;59.20;;;;;;5003379;28;20026;-78
2022/05/21 07:22:44;;;;;;;2.30;1.80;;;20.60;60.80;;;;;;5003285;28;20050;-78
2022/05/21 07:25:13;;;;;;;2.85;1.30;;;20.30;62.50;;;;;;5006705;28;20022;-77
2022/05/21 07:27:39;;;;;;;2.17;1.50;;;20.10;63.70;;;;;;5032497;28;20089;-77
2022/05/21 07:30:06;;;;;;;3.20;1.58;;;20.10;64.60;;;;;;5025236;28;20030;-77
2022/05/21 07:32:32;;;;;;;2.22;1.50;;;20.20;64.50;;;;;;5021644;28;20058;-78
2022/05/21 07:35:05;;;;;;;3.72;1.98;;;20.30;64.10;;;;;;5006321;28;20022;-78
2022/05/21 07:37:31;;;;;;;1.58;1.35;;;20.10;64.80;;;;;;5014911;28;20042;-79
2022/05/21 07:39:56;;;;;;;3.40;2.15;;;20.00;65.10;;;;;;5004367;28;20027;-78
2022/05/21 07:42:22;;;;;;;2.28;1.80;;;20.00;65.60;;;;;;4985841;28;20030;-79
2022/05/21 07:44:49;;;;;;;1.58;1.42;;;20.00;66.00;;;;;;5014165;28;20033;-79
2022/05/21 07:47:14;;;;;;;3.78;1.80;;;20.10;64.70;;;;;;5019688;28;20026;-79
2022/05/21 07:49:40;;;;;;;4.25;1.80;;;20.20;64.10;;;;;;5006195;28;20081;-79
2022/05/21 07:52:06;;;;;;;2.55;1.40;;;20.20;63.80;;;;;;4994867;28;20036;-79
2022/05/21 07:54:32;;;;;;;2.22;1.60;;;20.00;63.90;;;;;;4988592;28;20046;-79
2022/05/21 07:57:01;;;;;;;1.67;1.55;;;19.90;65.40;;;;;;5003692;28;20105;-79
2022/05/21 07:59:27;;;;;;;2.10;1.42;;;19.90;66.30;;;;;;5003581;28;20033;-79
2022/05/21 08:01:53;;;;;;;1.30;1.20;;;20.00;65.60;;;;;;5022430;28;20124;-78
2022/05/21 08:04:18;;;;;;;3.40;1.90;;;20.20;64.50;;;;;;5024727;28;20029;-79
2022/05/21 08:06:44;;;;;;;1.83;1.45;;;20.40;63.60;;;;;;5009037;28;20033;-78
2022/05/21 08:09:10;;;;;;;3.65;2.22;;;20.60;62.70;;;;;;5017912;28;20021;-79
2022/05/21 08:11:37;;;;;;;2.58;1.48;;;20.60;63.20;;;;;;5006792;28;20656;-79
2022/05/21 08:14:03;;;;;;;1.30;1.20;;;20.60;63.40;;;;;;5007877;28;20029;-79
2022/05/21 08:16:29;;;;;;;3.05;1.23;;;20.70;63.60;;;;;;5006726;28;20126;-79
2022/05/21 08:18:55;;;;;;;3.30;1.25;;;20.90;63.70;;;;;;5005351;28;20037;-79
2022/05/21 08:21:21;;;;;;;2.28;1.45;;;21.10;62.90;;;;;;5011162;28;20025;-79
2022/05/21 08:29:15;;;;;;;3.05;1.55;;;21.10;60.60;;;;;;5022627;28;20033;-79
2022/05/21 08:31:41;;;;;;;1.60;1.30;;;21.00;61.60;;;;;;5021194;28;20108;-79
2022/05/21 08:34:06;;;;;;;1.30;1.20;;;21.10;61.90;;;;;;5019489;28;20025;-80
2022/05/21 08:36:32;;;;;;;2.40;1.20;;;21.30;60.50;;;;;;5015903;28;20026;-78
2022/05/21 08:38:58;;;;;;;1.42;1.33;;;21.40;60.30;;;;;;5018322;28;20109;-79
2022/05/21 08:41:27;;;;;;;1.52;1.10;;;21.50;61.10;;;;;;5005741;28;20026;-78
2022/05/21 08:44:01;;;;;;;2.00;1.48;;;21.80;61.50;;;;;;5009307;28;20026;-79
2022/05/21 08:46:37;;;;;;;2.78;1.48;;;22.00;61.70;;;;;;5019079;28;20453;-78
2022/05/21 08:49:06;;;;;;;1.73;1.63;;;22.20;60.30;;;;;;4992418;28;20022;-78
2022/05/21 08:51:39;;;;;;;1.58;1.48;;;22.20;58.90;;;;;;5015993;28;20035;-78
2022/05/21 08:54:05;;;;;;;1.15;1.05;;;22.40;58.30;;;;;;5018665;28;20107;-78
2022/05/21 08:56:31;;;;;;;2.67;1.70;;;22.40;58.00;;;;;;5019576;28;20038;-78
2022/05/21 08:59:05;;;;;;;2.83;1.60;;;22.40;58.20;;;;;;5000722;28;20028;-78
2022/05/21 09:01:34;;;;;;;1.35;1.25;;;22.40;58.30;;;;;;5000631;28;20030;-79
2022/05/21 09:04:00;;;;;;;1.83;1.05;;;22.40;57.40;;;;;;5009492;28;20018;-79
2022/05/21 09:06:57;;;;;;;2.60;1.15;;;22.50;56.70;;;;;;5011755;28;20034;-79
2022/05/21 09:09:48;;;;;;;1.60;1.20;;;22.50;56.60;;;;;;5017044;28;20063;-79
2022/05/21 09:12:30;;;;;;;4.90;1.23;;;22.50;57.10;;;;;;5015698;28;20029;-78
2022/05/21 09:14:58;;;;;;;;;;;22.70;56.20;;;;;;5004850;28;20041;-78
2022/05/21 09:17:25;;;;;;;1.77;1.13;;;22.80;55.30;;;;;;5012635;28;19910;-78
2022/05/21 09:19:58;;;;;;;1.20;1.10;;;22.80;55.20;;;;;;5000662;28;20030;-79
2022/05/21 09:22:25;;;;;;;2.55;1.13;;;22.80;54.90;;;;;;5014169;28;20029;-78
2022/05/21 09:24:56;;;;;;;1.20;0.98;;;22.90;54.60;;;;;;5008346;28;20022;-78
2022/05/21 09:27:35;;;;;;;3.75;0.70;;;23.10;52.70;;;;;;4996762;28;20049;-78
2022/05/21 09:30:19;;;;;;;2.28;0.90;;;23.10;51.70;;;;;;5015491;28;20124;-78
2022/05/21 09:32:49;;;;;;;1.17;1.10;;;23.10;52.10;;;;;;5013158;28;20519;-78
2022/05/21 09:35:48;;;;;;;1.95;0.82;;;23.40;51.70;;;;;;4999900;28;20121;-78
2022/05/21 09:38:30;;;;;;;1.88;1.05;;;23.70;49.80;;;;;;5018809;28;20060;-79
2022/05/21 09:41:29;;;;;;;0.73;0.73;;;23.90;49.40;;;;;;5010054;28;20038;-79
2022/05/21 09:47:07;;;;;;;0.70;0.70;;;24.00;47.70;;;;;;5014505;28;20520;-78
2022/05/21 09:49:33;;;;;;;1.10;1.00;;;24.00;46.50;;;;;;5002019;28;20037;-79
2022/05/21 09:52:06;;;;;;;0.85;0.85;;;24.10;47.70;;;;;;5009042;28;20026;-79
2022/05/21 09:54:42;;;;;;;0.77;0.77;;;24.00;48.20;;;;;;5004565;28;20038;-79
2022/05/21 09:57:34;;;;;;;1.70;0.77;;;24.20;48.00;;;;;;5000053;28;20484;-79
2022/05/21 10:00:13;;;;;;;2.17;0.70;;;24.40;46.60;;;;;;4994052;28;20484;-78
2022/05/21 10:02:45;;;;;;;3.22;0.70;;;24.40;44.60;;;;;;5011326;28;20045;-78
2022/05/21 10:05:29;;;;;;;1.48;0.70;;;24.40;44.80;;;;;;4998005;28;20410;-78
2022/05/21 10:11:02;;;;;;;0.50;0.50;;;24.30;45.80;;;;;;4999565;28;20037;-79
2022/05/21 10:13:45;;;;;;;1.98;0.65;;;24.60;44.80;;;;;;5017371;28;20022;-79
2022/05/21 10:16:29;;;;;;;;;;;24.70;44.30;;;;;;5005425;28;20026;-79
2022/05/21 10:19:13;;;;;;;1.17;0.70;;;24.80;42.20;;;;;;5007709;28;20052;-79
2022/05/21 10:21:47;;;;;;;1.55;0.90;;;24.90;42.70;;;;;;4996895;28;20058;-78
2022/05/21 10:24:45;;;;;;;0.73;0.65;;;24.70;41.30;;;;;;5000111;28;20562;-79
2022/05/21 10:27:44;;;;;;;0.73;0.57;;;24.70;41.50;;;;;;5001166;28;20068;-79
2022/05/21 10:30:30;;;;;;;0.68;0.60;;;24.60;41.60;;;;;;5005841;28;20082;-79
2022/05/21 10:33:15;;;;;;;0.88;0.63;;;24.60;41.20;;;;;;4998823;28;20495;-79
2022/05/21 10:36:25;;;;;;;0.70;0.70;;;24.80;40.80;;;;;;5016636;28;20057;-79
2022/05/21 10:39:26;;;;;;;1.67;0.70;;;24.90;40.20;;;;;;4967183;28;20034;-79
2022/05/21 10:42:00;;;;;;;0.55;0.55;;;24.90;40.30;;;;;;4946522;29;20499;-79
2022/05/21 10:44:45;;;;;;;0.55;0.55;;;25.00;40.40;;;;;;5004847;28;20497;-79
2022/05/21 10:47:20;;;;;;;0.47;0.47;;;25.00;39.90;;;;;;5000385;28;20049;-80
2022/05/21 10:50:04;;;;;;;2.00;0.80;;;24.80;39.50;;;;;;5016315;28;20080;-79
2022/05/21 10:52:41;;;;;;;0.85;0.70;;;24.90;40.20;;;;;;4999000;28;20029;-79
2022/05/21 10:55:17;;;;;;;0.68;0.60;;;25.00;41.00;;;;;;5006244;28;20049;-79
2022/05/21 10:58:05;;;;;;;0.40;0.40;;;25.10;40.90;;;;;;5000465;28;20022;-79
2022/05/21 11:00:46;;;;;;;1.77;0.73;;;25.30;40.50;;;;;;4981571;28;20037;-78
2022/05/21 11:03:33;;;;;;;0.88;0.63;;;25.40;40.20;;;;;;4999630;28;20249;-78
2022/05/21 11:06:11;;;;;;;0.70;0.70;;;25.40;39.90;;;;;;4999576;28;20033;-78
2022/05/21 11:08:45;;;;;;;0.43;0.43;;;25.40;39.80;;;;;;4996199;28;20034;-79
2022/05/21 11:11:11;;;;;;;1.77;0.50;;;25.40;40.30;;;;;;5002817;28;20022;-78
2022/05/21 11:13:55;;;;;;;0.65;0.60;;;25.60;40.30;;;;;;5000795;28;20030;-79
2022/05/21 11:16:32;;;;;;;0.65;0.65;;;25.90;39.80;;;;;;5018264;28;20092;-79
2022/05/21 11:19:02;;;;;;;0.52;0.50;;;26.00;39.20;;;;;;4991973;28;20030;-80
2022/05/21 11:21:34;;;;;;;3.20;1.08;;;26.00;39.30;;;;;;5007096;28;20030;-78
2022/05/21 11:24:03;;;;;;;5.65;0.57;;;26.10;39.10;;;;;;5020678;28;20026;-79
2022/05/21 11:26:39;;;;;;;0.80;0.40;;;26.00;38.40;;;;;;4997059;28;20120;-79
2022/05/21 11:29:19;;;;;;;1.20;0.70;;;25.90;38.90;;;;;;5007912;28;20054;-79
2022/05/21 11:37:42;;;;;;;1.73;0.80;;;26.30;38.80;;;;;;5010755;28;20065;-80
2022/05/21 11:40:29;;;;;;;1.08;0.70;;;26.30;38.70;;;;;;5002787;28;20122;-80
2022/05/21 11:42:55;;;;;;;4.03;0.60;;;26.40;37.90;;;;;;5004798;28;20392;-79
2022/05/21 11:45:24;;;;;;;0.65;0.60;;;26.20;38.30;;;;;;5020691;28;20044;-79
2022/05/21 11:47:55;;;;;;;1.85;0.50;;;26.10;38.30;;;;;;5014991;28;20044;-79
2022/05/21 11:50:29;;;;;;;0.43;0.40;;;26.10;38.20;;;;;;5014745;28;20037;-79
2022/05/21 11:53:01;;;;;;;1.55;0.57;;;26.00;38.50;;;;;;5002712;28;20333;-80
2022/05/21 11:55:51;;;;;;;0.93;0.60;;;26.20;38.40;;;;;;5002989;28;20032;-79
2022/05/21 11:58:16;;;;;;;2.60;0.63;;;26.20;38.00;;;;;;5014079;28;20053;-79
2022/05/21 12:00:47;;;;;;;2.03;0.70;;;26.00;37.70;;;;;;5007642;28;20030;-79
2022/05/21 12:03:16;;;;;;;0.73;0.73;;;25.80;38.20;;;;;;5030172;28;20036;-79
2022/05/21 12:05:47;;;;;;;0.85;0.50;;;25.80;38.00;;;;;;5012544;28;20029;-79
2022/05/21 12:08:22;;;;;;;0.35;0.30;;;25.80;38.80;;;;;;5030769;28;20124;-79
2022/05/21 12:11:20;;;;;;;2.08;0.57;;;26.00;38.40;;;;;;5026463;28;20049;-79
2022/05/21 12:13:51;;;;;;;1.90;0.47;;;25.90;38.60;;;;;;5012599;28;20040;-78
2022/05/21 12:16:17;;;;;;;0.68;0.50;;;26.00;39.20;;;;;;5028873;28;20030;-79
2022/05/21 12:18:46;;;;;;;0.90;0.45;;;26.10;39.60;;;;;;5006211;28;20085;-79
2022/05/21 12:21:30;;;;;;;0.47;0.45;;;26.30;38.70;;;;;;5014158;28;20030;-79
2022/05/21 12:23:58;;;;;;;0.60;0.50;;;26.20;38.90;;;;;;4992154;28;20034;-79
2022/05/21 12:26:33;;;;;;;2.50;0.70;;;26.30;38.70;;;;;;5015448;28;20045;-79
2022/05/21 12:29:12;;;;;;;0.30;0.30;;;26.30;38.80;;;;;;5014132;28;20023;-79
2022/05/21 12:31:47;;;;;;;0.80;0.30;;;26.40;39.10;;;;;;5016789;28;20081;-79
2022/05/21 12:34:22;;;;;;;2.83;0.82;;;26.40;39.10;;;;;;5021920;28;20029;-79
2022/05/21 12:37:09;;;;;;;1.05;0.65;;;26.50;38.40;;;;;;5009094;28;20090;-79
2022/05/21 12:40:09;;;;;;;0.50;0.50;;;26.50;37.70;;;;;;5013414;28;20027;-79
2022/05/21 12:42:42;;;;;;;0.70;0.70;;;26.40;36.70;;;;;;5018055;28;20050;-77
2022/05/21 12:45:09;;;;;;;2.67;0.60;;;26.40;36.70;;;;;;5043929;23;20033;-82
2022/05/21 12:47:38;;;;;;;1.38;0.50;;;26.50;36.20;;;;;;5042116;28;20028;-82
2022/05/21 12:50:19;;;;;;;3.75;0.80;;;26.40;36.20;;;;;;5034038;28;20022;-82
2022/05/21 12:52:53;;;;;;;1.25;0.80;;;26.20;36.10;;;;;;5043842;28;20505;-81
2022/05/21 12:55:33;;;;;;;3.22;1.10;;;26.00;36.60;;;;;;5031779;28;20156;-82
2022/05/21 12:58:20;;;;;;;0.65;0.35;;;26.00;37.50;;;;;;5024323;28;20038;-84
2022/05/21 13:00:51;;;;;;;2.35;0.60;;;25.80;37.90;;;;;;5009417;28;20046;-83
2022/05/21 13:03:18;;;;;;;1.65;0.50;;;26.00;38.20;;;;;;5025620;28;20042;-84
2022/05/21 13:05:53;;;;;;;0.60;0.60;;;26.20;37.90;;;;;;5024699;28;20014;-83
2022/05/21 13:08:21;;;;;;;1.83;0.50;;;26.40;38.40;;;;;;5025538;28;20091;-83
2022/05/21 13:11:03;;;;;;;0.70;0.60;;;26.60;38.40;;;;;;5023438;28;20030;-82
2022/05/21 13:13:36;;;;;;;1.30;0.73;;;26.50;37.80;;;;;;5025686;28;20022;-82
2022/05/21 13:16:05;;;;;;;0.98;0.40;;;26.50;38.20;;;;;;5035009;28;20025;-87
2022/05/21 13:18:36;;;;;;;0.93;0.68;;;26.40;38.70;;;;;;5036790;28;20102;-82
2022/05/21 13:21:13;;;;;;;2.47;0.50;;;26.40;38.00;;;;;;5036562;28;20047;-88
2022/05/21 13:23:47;;;;;;;1.20;0.82;;;26.50;37.80;;;;;;5037275;28;20018;-84
2022/05/21 13:26:22;;;;;;;0.50;0.50;;;26.60;38.20;;;;;;5029532;28;20478;-85
2022/05/21 13:28:48;;;;;;;1.60;0.63;;;26.90;37.80;;;;;;5026666;28;20033;-84
2022/05/21 13:31:19;;;;;;;2.08;0.47;;;27.10;37.50;;;;;;5021563;28;20013;-83
2022/05/21 13:33:55;;;;;;;1.37;0.50;;;27.10;37.40;;;;;;5023009;28;20049;-86
2022/05/21 13:36:31;;;;;;;3.03;0.73;;;27.00;37.10;;;;;;5037195;28;20025;-88
2022/05/21 13:38:57;;;;;;;0.43;0.40;;;26.70;37.20;;;;;;5020106;28;20053;-82
2022/05/21 13:41:33;;;;;;;1.00;0.60;;;26.50;37.20;;;;;;5031408;28;20053;-82